sensor_id;sensor_type;location;lat;lon;timestamp;P1;durP1;ratioP1;P2;durP2;ratioP2
28245;SDS011;15510;52.512;13.300;2023-07-13T00:02:18;3.45;;;1.60;;
28245;SDS011;15510;52.512;13.300;2023-07-13T00:04:44;4.20;;;1.50;;
28245;SDS011;15510;52.512;13.300;2023-07-13T00:07:13;3.33;;;1.85;;
28245;SDS011;15510;52.512;13.300;2023-07-13T00:09:42;3.05;;;1.35;;
28245;SDS011;15510;52.512;13.300;2023-07-13T00:14:58;3.45;;;1.42;;
28245;SDS011;15510;52.512;13.300;2023-07-13T00:17:25;2.78;;;1.40;;
28245;SDS011;15510;52.512;13.300;2023-07-13T00:19:52;5.15;;;1.38;;
28245;SDS011;15510;52.512;13.300;2023-07-13T00:22:20;4.53;;;1.88;;
28245;SDS011;15510;52.512;13.300;2023-07-13T00:24:47;2.25;;;1.33;;
28245;SDS011;15510;52.512;13.300;2023-07-13T00:27:13;4.38;;;1.40;;
28245;SDS011;15510;52.512;13.300;2023-07-13T00:29:39;4.82;;;1.70;;
28245;SDS011;15510;52.512;13.300;2023-07-13T00:32:06;3.17;;;1.65;;
28245;SDS011;15510;52.512;13.300;2023-07-13T00:34:35;1.80;;;1.20;;
28245;SDS011;15510;52.512;13.300;2023-07-13T00:37:03;1.73;;;1.00;;
28245;SDS011;15510;52.512;13.300;2023-07-13T00:39:36;3.75;;;1.42;;
28245;SDS011;15510;52.512;13.300;2023-07-13T00:42:03;2.45;;;1.40;;
28245;SDS011;15510;52.512;13.300;2023-07-13T00:44:29;3.80;;;1.85;;
28245;SDS011;15510;52.512;13.300;2023-07-13T00:46:55;5.20;;;1.40;;
28245;SDS011;15510;52.512;13.300;2023-07-13T00:49:23;2.13;;;1.50;;
28245;SDS011;15510;52.512;13.300;2023-07-13T00:51:55;5.88;;;1.65;;
28245;SDS011;15510;52.512;13.300;2023-07-13T00:54:30;3.05;;;1.50;;
28245;SDS011;15510;52.512;13.300;2023-07-13T00:57:02;3.30;;;1.58;;
28245;SDS011;15510;52.512;13.300;2023-07-13T00:59:31;2.03;;;1.58;;
28245;SDS011;15510;52.512;13.300;2023-07-13T01:02:01;3.30;;;1.17;;
28245;SDS011;15510;52.512;13.300;2023-07-13T01:04:28;3.22;;;1.33;;
28245;SDS011;15510;52.512;13.300;2023-07-13T01:06:54;4.05;;;1.40;;
28245;SDS011;15510;52.512;13.300;2023-07-13T01:09:21;4.28;;;1.90;;
28245;SDS011;15510;52.512;13.300;2023-07-13T01:11:48;1.88;;;1.55;;
28245;SDS011;15510;52.512;13.300;2023-07-13T01:14:14;2.83;;;1.77;;
28245;SDS011;15510;52.512;13.300;2023-07-13T01:16:47;3.35;;;1.55;;
28245;SDS011;15510;52.512;13.300;2023-07-13T01:19:24;3.50;;;1.85;;
28245;SDS011;15510;52.512;13.300;2023-07-13T01:22:06;4.35;;;1.75;;
28245;SDS011;15510;52.512;13.300;2023-07-13T01:24:43;3.78;;;1.73;;
28245;SDS011;15510;52.512;13.300;2023-07-13T01:27:16;3.47;;;1.67;;
28245;SDS011;15510;52.512;13.300;2023-07-13T01:29:46;3.72;;;2.10;;
28245;SDS011;15510;52.512;13.300;2023-07-13T01:32:16;2.97;;;1.90;;
28245;SDS011;15510;52.512;13.300;2023-07-13T01:34:48;2.78;;;1.70;;
28245;SDS011;15510;52.512;13.300;2023-07-13T01:37:16;3.22;;;1.80;;
28245;SDS011;15510;52.512;13.300;2023-07-13T01:39:42;4.20;;;1.85;;
28245;SDS011;15510;52.512;13.300;2023-07-13T01:42:08;3.38;;;1.75;;
28245;SDS011;15510;52.512;13.300;2023-07-13T01:44:34;2.60;;;1.80;;
28245;SDS011;15510;52.512;13.300;2023-07-13T01:47:00;3.00;;;1.38;;
28245;SDS011;15510;52.512;13.300;2023-07-13T01:49:33;6.28;;;1.80;;
28245;SDS011;15510;52.512;13.300;2023-07-13T01:51:59;6.35;;;1.80;;
28245;SDS011;15510;52.512;13.300;2023-07-13T01:54:24;4.10;;;1.80;;
28245;SDS011;15510;52.512;13.300;2023-07-13T01:56:51;4.43;;;1.73;;
28245;SDS011;15510;52.512;13.300;2023-07-13T01:59:16;2.33;;;1.73;;
28245;SDS011;15510;52.512;13.300;2023-07-13T02:01:42;4.38;;;1.95;;
28245;SDS011;15510;52.512;13.300;2023-07-13T02:04:08;3.05;;;1.70;;
28245;SDS011;15510;52.512;13.300;2023-07-13T02:06:34;6.22;;;2.10;;
28245;SDS011;15510;52.512;13.300;2023-07-13T02:08:59;6.88;;;2.08;;
28245;SDS011;15510;52.512;13.300;2023-07-13T02:11:25;2.58;;;2.38;;
28245;SDS011;15510;52.512;13.300;2023-07-13T02:13:58;2.88;;;1.67;;
28245;SDS011;15510;52.512;13.300;2023-07-13T02:16:27;2.35;;;1.73;;
28245;SDS011;15510;52.512;13.300;2023-07-13T02:18:53;4.45;;;1.92;;
28245;SDS011;15510;52.512;13.300;2023-07-13T02:21:21;5.18;;;2.00;;
28245;SDS011;15510;52.512;13.300;2023-07-13T02:23:50;3.08;;;1.70;;
28245;SDS011;15510;52.512;13.300;2023-07-13T02:26:17;5.05;;;1.85;;
28245;SDS011;15510;52.512;13.300;2023-07-13T02:28:43;1.58;;;1.48;;
28245;SDS011;15510;52.512;13.300;2023-07-13T02:31:12;4.88;;;1.80;;
28245;SDS011;15510;52.512;13.300;2023-07-13T02:33:39;5.05;;;1.85;;
28245;SDS011;15510;52.512;13.300;2023-07-13T02:36:05;2.95;;;1.45;;
28245;SDS011;15510;52.512;13.300;2023-07-13T02:38:32;4.47;;;1.73;;
28245;SDS011;15510;52.512;13.300;2023-07-13T02:41:01;5.05;;;1.58;;
28245;SDS011;15510;52.512;13.300;2023-07-13T02:43:27;4.10;;;1.42;;
28245;SDS011;15510;52.512;13.300;2023-07-13T02:45:56;6.78;;;1.75;;
28245;SDS011;15510;52.512;13.300;2023-07-13T02:48:25;2.30;;;1.27;;
28245;SDS011;15510;52.512;13.300;2023-07-13T02:50:54;2.55;;;1.20;;
28245;SDS011;15510;52.512;13.300;2023-07-13T02:53:19;2.50;;;1.23;;
28245;SDS011;15510;52.512;13.300;2023-07-13T02:55:45;4.30;;;1.67;;
28245;SDS011;15510;52.512;13.300;2023-07-13T02:58:12;3.55;;;1.63;;
28245;SDS011;15510;52.512;13.300;2023-07-13T03:00:45;5.72;;;1.48;;
28245;SDS011;15510;52.512;13.300;2023-07-13T03:03:13;3.70;;;1.50;;
28245;SDS011;15510;52.512;13.300;2023-07-13T03:05:41;4.43;;;1.52;;
28245;SDS011;15510;52.512;13.300;2023-07-13T03:08:08;4.63;;;1.48;;
28245;SDS011;15510;52.512;13.300;2023-07-13T03:10:35;2.05;;;1.40;;
28245;SDS011;15510;52.512;13.300;2023-07-13T03:13:01;5.90;;;1.70;;
28245;SDS011;15510;52.512;13.300;2023-07-13T03:15:29;2.25;;;1.35;;
28245;SDS011;15510;52.512;13.300;2023-07-13T03:17:57;2.20;;;1.33;;
28245;SDS011;15510;52.512;13.300;2023-07-13T03:20:23;3.38;;;1.88;;
28245;SDS011;15510;52.512;13.300;2023-07-13T03:22:49;4.18;;;1.83;;
28245;SDS011;15510;52.512;13.300;2023-07-13T03:25:16;4.05;;;1.42;;
28245;SDS011;15510;52.512;13.300;2023-07-13T03:27:42;2.90;;;2.08;;
28245;SDS011;15510;52.512;13.300;2023-07-13T03:30:08;2.28;;;1.25;;
28245;SDS011;15510;52.512;13.300;2023-07-13T03:32:35;2.38;;;1.40;;
28245;SDS011;15510;52.512;13.300;2023-07-13T03:35:01;3.97;;;1.77;;
28245;SDS011;15510;52.512;13.300;2023-07-13T03:37:29;4.45;;;1.98;;
28245;SDS011;15510;52.512;13.300;2023-07-13T03:39:54;6.80;;;2.20;;
28245;SDS011;15510;52.512;13.300;2023-07-13T03:42:20;3.20;;;1.90;;
28245;SDS011;15510;52.512;13.300;2023-07-13T03:44:46;5.88;;;1.88;;
28245;SDS011;15510;52.512;13.300;2023-07-13T03:47:17;1.73;;;1.52;;
28245;SDS011;15510;52.512;13.300;2023-07-13T03:49:46;1.73;;;1.55;;
28245;SDS011;15510;52.512;13.300;2023-07-13T03:52:15;2.90;;;1.67;;
28245;SDS011;15510;52.512;13.300;2023-07-13T03:54:41;2.78;;;1.70;;
28245;SDS011;15510;52.512;13.300;2023-07-13T03:57:07;2.75;;;1.50;;
28245;SDS011;15510;52.512;13.300;2023-07-13T03:59:35;2.83;;;1.40;;
28245;SDS011;15510;52.512;13.300;2023-07-13T04:02:01;3.13;;;1.65;;
28245;SDS011;15510;52.512;13.300;2023-07-13T04:04:32;6.38;;;2.05;;
28245;SDS011;15510;52.512;13.300;2023-07-13T04:06:57;3.45;;;1.75;;
28245;SDS011;15510;52.512;13.300;2023-07-13T04:09:24;3.08;;;1.73;;
28245;SDS011;15510;52.512;13.300;2023-07-13T04:11:50;3.00;;;1.52;;
28245;SDS011;15510;52.512;13.300;2023-07-13T04:14:16;7.55;;;2.10;;
28245;SDS011;15510;52.512;13.300;2023-07-13T04:16:42;4.22;;;1.50;;
28245;SDS011;15510;52.512;13.300;2023-07-13T04:19:09;6.05;;;1.80;;
28245;SDS011;15510;52.512;13.300;2023-07-13T04:21:35;3.80;;;1.85;;
28245;SDS011;15510;52.512;13.300;2023-07-13T04:24:02;3.30;;;1.80;;
28245;SDS011;15510;52.512;13.300;2023-07-13T04:26:29;3.22;;;1.80;;
28245;SDS011;15510;52.512;13.300;2023-07-13T04:28:55;4.78;;;2.05;;
28245;SDS011;15510;52.512;13.300;2023-07-13T04:31:21;3.20;;;1.58;;
28245;SDS011;15510;52.512;13.300;2023-07-13T04:33:48;3.10;;;1.38;;
28245;SDS011;15510;52.512;13.300;2023-07-13T04:36:15;3.08;;;1.80;;
28245;SDS011;15510;52.512;13.300;2023-07-13T04:38:41;3.40;;;1.48;;
28245;SDS011;15510;52.512;13.300;2023-07-13T04:41:08;2.67;;;1.42;;
28245;SDS011;15510;52.512;13.300;2023-07-13T04:43:34;3.05;;;1.55;;
28245;SDS011;15510;52.512;13.300;2023-07-13T04:46:07;2.95;;;1.70;;
28245;SDS011;15510;52.512;13.300;2023-07-13T04:48:36;4.25;;;1.63;;
28245;SDS011;15510;52.512;13.300;2023-07-13T04:51:02;2.55;;;1.60;;
28245;SDS011;15510;52.512;13.300;2023-07-13T04:53:28;4.35;;;1.50;;
28245;SDS011;15510;52.512;13.300;2023-07-13T04:55:54;2.33;;;1.52;;
28245;SDS011;15510;52.512;13.300;2023-07-13T04:58:21;3.17;;;1.70;;
28245;SDS011;15510;52.512;13.300;2023-07-13T05:00:49;2.92;;;1.60;;
28245;SDS011;15510;52.512;13.300;2023-07-13T05:03:15;1.77;;;1.58;;
28245;SDS011;15510;52.512;13.300;2023-07-13T05:05:41;3.53;;;1.90;;
28245;SDS011;15510;52.512;13.300;2023-07-13T05:08:09;2.75;;;1.67;;
28245;SDS011;15510;52.512;13.300;2023-07-13T05:10:35;1.95;;;1.60;;
28245;SDS011;15510;52.512;13.300;2023-07-13T05:13:01;3.30;;;2.13;;
28245;SDS011;15510;52.512;13.300;2023-07-13T05:15:28;4.13;;;2.33;;
28245;SDS011;15510;52.512;13.300;2023-07-13T05:17:53;5.10;;;2.17;;
28245;SDS011;15510;52.512;13.300;2023-07-13T05:20:19;4.55;;;2.10;;
28245;SDS011;15510;52.512;13.300;2023-07-13T05:22:45;4.13;;;2.00;;
28245;SDS011;15510;52.512;13.300;2023-07-13T05:25:15;4.22;;;2.13;;
28245;SDS011;15510;52.512;13.300;2023-07-13T05:27:41;7.45;;;2.30;;
28245;SDS011;15510;52.512;13.300;2023-07-13T05:30:07;3.60;;;2.00;;
28245;SDS011;15510;52.512;13.300;2023-07-13T05:32:36;4.45;;;2.30;;
28245;SDS011;15510;52.512;13.300;2023-07-13T05:35:04;5.32;;;1.85;;
28245;SDS011;15510;52.512;13.300;2023-07-13T05:37:30;3.25;;;1.70;;
28245;SDS011;15510;52.512;13.300;2023-07-13T05:39:56;4.60;;;2.22;;
28245;SDS011;15510;52.512;13.300;2023-07-13T05:42:21;2.40;;;1.40;;
28245;SDS011;15510;52.512;13.300;2023-07-13T05:44:47;4.47;;;1.63;;
28245;SDS011;15510;52.512;13.300;2023-07-13T05:47:13;4.15;;;1.85;;
28245;SDS011;15510;52.512;13.300;2023-07-13T05:49:40;2.58;;;1.65;;
28245;SDS011;15510;52.512;13.300;2023-07-13T05:52:06;3.75;;;1.70;;
28245;SDS011;15510;52.512;13.300;2023-07-13T05:54:32;6.07;;;1.70;;
28245;SDS011;15510;52.512;13.300;2023-07-13T05:57:00;4.85;;;1.33;;
28245;SDS011;15510;52.512;13.300;2023-07-13T05:59:25;3.47;;;1.60;;
28245;SDS011;15510;52.512;13.300;2023-07-13T06:01:51;2.17;;;1.48;;
28245;SDS011;15510;52.512;13.300;2023-07-13T06:04:20;3.70;;;1.83;;
28245;SDS011;15510;52.512;13.300;2023-07-13T06:06:46;4.30;;;2.25;;
28245;SDS011;15510;52.512;13.300;2023-07-13T06:09:11;4.63;;;1.55;;
28245;SDS011;15510;52.512;13.300;2023-07-13T06:11:37;4.50;;;1.95;;
28245;SDS011;15510;52.512;13.300;2023-07-13T06:14:03;1.55;;;1.23;;
28245;SDS011;15510;52.512;13.300;2023-07-13T06:16:31;3.10;;;1.50;;
28245;SDS011;15510;52.512;13.300;2023-07-13T06:18:57;3.38;;;1.50;;
28245;SDS011;15510;52.512;13.300;2023-07-13T06:21:23;3.47;;;1.30;;
28245;SDS011;15510;52.512;13.300;2023-07-13T06:23:50;3.38;;;1.52;;
28245;SDS011;15510;52.512;13.300;2023-07-13T06:26:22;2.58;;;1.30;;
28245;SDS011;15510;52.512;13.300;2023-07-13T06:28:56;3.67;;;1.45;;
28245;SDS011;15510;52.512;13.300;2023-07-13T06:31:22;3.60;;;1.55;;
28245;SDS011;15510;52.512;13.300;2023-07-13T06:33:47;3.35;;;1.50;;
28245;SDS011;15510;52.512;13.300;2023-07-13T06:36:14;3.20;;;1.60;;
28245;SDS011;15510;52.512;13.300;2023-07-13T06:38:43;4.53;;;1.38;;
28245;SDS011;15510;52.512;13.300;2023-07-13T06:41:09;3.95;;;1.52;;
28245;SDS011;15510;52.512;13.300;2023-07-13T06:43:35;3.60;;;1.80;;
28245;SDS011;15510;52.512;13.300;2023-07-13T06:46:01;3.47;;;1.27;;
28245;SDS011;15510;52.512;13.300;2023-07-13T06:48:27;4.90;;;1.40;;
28245;SDS011;15510;52.512;13.300;2023-07-13T06:50:53;4.00;;;1.20;;
28245;SDS011;15510;52.512;13.300;2023-07-13T06:53:21;2.03;;;1.48;;
28245;SDS011;15510;52.512;13.300;2023-07-13T06:55:48;3.47;;;1.20;;
28245;SDS011;15510;52.512;13.300;2023-07-13T06:58:15;3.25;;;1.42;;
28245;SDS011;15510;52.512;13.300;2023-07-13T07:00:42;2.78;;;1.02;;
28245;SDS011;15510;52.512;13.300;2023-07-13T07:03:08;3.25;;;1.48;;
28245;SDS011;15510;52.512;13.300;2023-07-13T07:05:33;3.47;;;1.30;;
28245;SDS011;15510;52.512;13.300;2023-07-13T07:07:59;4.95;;;1.10;;
28245;SDS011;15510;52.512;13.300;2023-07-13T07:10:26;2.95;;;1.23;;
28245;SDS011;15510;52.512;13.300;2023-07-13T07:12:54;1.40;;;1.02;;
28245;SDS011;15510;52.512;13.300;2023-07-13T07:15:19;3.55;;;1.25;;
28245;SDS011;15510;52.512;13.300;2023-07-13T07:17:45;4.47;;;1.13;;
28245;SDS011;15510;52.512;13.300;2023-07-13T07:20:17;3.05;;;1.17;;
28245;SDS011;15510;52.512;13.300;2023-07-13T07:22:42;1.60;;;1.10;;
28245;SDS011;15510;52.512;13.300;2023-07-13T07:25:08;3.10;;;1.00;;
28245;SDS011;15510;52.512;13.300;2023-07-13T07:27:34;3.25;;;1.08;;
28245;SDS011;15510;52.512;13.300;2023-07-13T07:30:00;2.22;;;1.10;;
28245;SDS011;15510;52.512;13.300;2023-07-13T07:32:26;5.28;;;1.10;;
28245;SDS011;15510;52.512;13.300;2023-07-13T07:34:54;2.00;;;1.00;;
28245;SDS011;15510;52.512;13.300;2023-07-13T07:37:20;5.70;;;1.08;;
28245;SDS011;15510;52.512;13.300;2023-07-13T07:39:45;1.55;;;1.10;;
28245;SDS011;15510;52.512;13.300;2023-07-13T07:42:11;2.03;;;0.90;;
28245;SDS011;15510;52.512;13.300;2023-07-13T07:44:38;3.60;;;1.00;;
28245;SDS011;15510;52.512;13.300;2023-07-13T07:47:04;3.25;;;1.75;;
28245;SDS011;15510;52.512;13.300;2023-07-13T07:49:31;4.90;;;1.00;;
28245;SDS011;15510;52.512;13.300;2023-07-13T07:51:57;1.92;;;0.95;;
28245;SDS011;15510;52.512;13.300;2023-07-13T07:54:22;3.20;;;1.10;;
28245;SDS011;15510;52.512;13.300;2023-07-13T07:56:48;4.57;;;0.82;;
28245;SDS011;15510;52.512;13.300;2023-07-13T07:59:14;1.38;;;1.00;;
28245;SDS011;15510;52.512;13.300;2023-07-13T08:01:40;2.20;;;0.80;;
28245;SDS011;15510;52.512;13.300;2023-07-13T08:04:06;0.75;;;0.70;;
28245;SDS011;15510;52.512;13.300;2023-07-13T08:06:32;2.90;;;1.17;;
28245;SDS011;15510;52.512;13.300;2023-07-13T08:09:01;2.85;;;1.13;;
28245;SDS011;15510;52.512;13.300;2023-07-13T08:11:29;1.52;;;0.85;;
28245;SDS011;15510;52.512;13.300;2023-07-13T08:13:58;4.13;;;1.40;;
28245;SDS011;15510;52.512;13.300;2023-07-13T08:16:26;6.40;;;1.00;;
28245;SDS011;15510;52.512;13.300;2023-07-13T08:18:51;1.67;;;0.90;;
28245;SDS011;15510;52.512;13.300;2023-07-13T08:21:20;2.30;;;0.90;;
28245;SDS011;15510;52.512;13.300;2023-07-13T08:23:46;2.42;;;0.90;;
28245;SDS011;15510;52.512;13.300;2023-07-13T08:26:12;1.80;;;1.10;;
28245;SDS011;15510;52.512;13.300;2023-07-13T08:28:38;2.45;;;0.95;;
28245;SDS011;15510;52.512;13.300;2023-07-13T08:31:04;4.82;;;1.38;;
28245;SDS011;15510;52.512;13.300;2023-07-13T08:33:33;4.22;;;0.98;;
28245;SDS011;15510;52.512;13.300;2023-07-13T08:36:00;4.07;;;0.80;;
28245;SDS011;15510;52.512;13.300;2023-07-13T08:38:32;2.83;;;1.20;;
28245;SDS011;15510;52.512;13.300;2023-07-13T08:40:58;3.15;;;1.00;;
28245;SDS011;15510;52.512;13.300;2023-07-13T08:43:33;2.92;;;0.90;;
28245;SDS011;15510;52.512;13.300;2023-07-13T08:46:05;3.15;;;1.13;;
28245;SDS011;15510;52.512;13.300;2023-07-13T08:48:53;2.20;;;1.15;;
28245;SDS011;15510;52.512;13.300;2023-07-13T08:54:16;4.07;;;0.77;;
28245;SDS011;15510;52.512;13.300;2023-07-13T08:56:55;1.88;;;0.70;;
28245;SDS011;15510;52.512;13.300;2023-07-13T08:59:26;4.75;;;1.25;;
28245;SDS011;15510;52.512;13.300;2023-07-13T09:09:50;2.90;;;0.93;;
28245;SDS011;15510;52.512;13.300;2023-07-13T09:17:56;2.53;;;0.65;;
28245;SDS011;15510;52.512;13.300;2023-07-13T09:20:40;4.78;;;0.95;;
28245;SDS011;15510;52.512;13.300;2023-07-13T09:23:27;3.65;;;1.10;;
28245;SDS011;15510;52.512;13.300;2023-07-13T09:26:04;2.90;;;0.82;;
28245;SDS011;15510;52.512;13.300;2023-07-13T09:28:55;3.42;;;1.00;;
28245;SDS011;15510;52.512;13.300;2023-07-13T09:31:39;1.95;;;1.00;;
28245;SDS011;15510;52.512;13.300;2023-07-13T09:34:12;2.53;;;0.90;;
28245;SDS011;15510;52.512;13.300;2023-07-13T09:36:39;3.22;;;1.40;;
28245;SDS011;15510;52.512;13.300;2023-07-13T09:47:25;4.45;;;1.35;;
28245;SDS011;15510;52.512;13.300;2023-07-13T09:49:58;8.93;;;1.48;;
28245;SDS011;15510;52.512;13.300;2023-07-13T09:52:48;7.32;;;1.92;;
28245;SDS011;15510;52.512;13.300;2023-07-13T09:55:38;3.25;;;1.48;;
28245;SDS011;15510;52.512;13.300;2023-07-13T09:58:17;6.80;;;1.75;;
28245;SDS011;15510;52.512;13.300;2023-07-13T10:00:58;5.80;;;1.50;;
28245;SDS011;15510;52.512;13.300;2023-07-13T10:03:28;2.13;;;1.30;;
28245;SDS011;15510;52.512;13.300;2023-07-13T10:06:01;2.47;;;1.75;;
28245;SDS011;15510;52.512;13.300;2023-07-13T10:08:41;5.35;;;1.50;;
28245;SDS011;15510;52.512;13.300;2023-07-13T10:11:10;6.32;;;1.33;;
28245;SDS011;15510;52.512;13.300;2023-07-13T10:13:50;3.70;;;1.27;;
28245;SDS011;15510;52.512;13.300;2023-07-13T10:16:20;5.32;;;1.50;;
28245;SDS011;15510;52.512;13.300;2023-07-13T10:19:15;5.45;;;1.25;;
28245;SDS011;15510;52.512;13.300;2023-07-13T10:21:54;4.10;;;1.27;;
28245;SDS011;15510;52.512;13.300;2023-07-13T10:24:22;4.30;;;1.67;;
28245;SDS011;15510;52.512;13.300;2023-07-13T10:29:50;1.98;;;1.48;;
28245;SDS011;15510;52.512;13.300;2023-07-13T10:32:21;4.13;;;1.55;;
28245;SDS011;15510;52.512;13.300;2023-07-13T10:34:49;5.05;;;1.42;;
28245;SDS011;15510;52.512;13.300;2023-07-13T10:37:26;4.05;;;1.40;;
28245;SDS011;15510;52.512;13.300;2023-07-13T10:39:57;3.30;;;1.60;;
28245;SDS011;15510;52.512;13.300;2023-07-13T10:42:34;3.40;;;1.33;;
28245;SDS011;15510;52.512;13.300;2023-07-13T10:45:12;3.80;;;1.30;;
28245;SDS011;15510;52.512;13.300;2023-07-13T10:47:47;1.58;;;1.10;;
28245;SDS011;15510;52.512;13.300;2023-07-13T10:50:28;3.17;;;1.10;;
28245;SDS011;15510;52.512;13.300;2023-07-13T10:53:20;4.22;;;1.30;;
28245;SDS011;15510;52.512;13.300;2023-07-13T11:01:46;4.22;;;1.85;;
28245;SDS011;15510;52.512;13.300;2023-07-13T11:04:42;1.50;;;1.27;;
28245;SDS011;15510;52.512;13.300;2023-07-13T11:07:27;5.15;;;1.40;;
28245;SDS011;15510;52.512;13.300;2023-07-13T11:10:49;4.55;;;1.38;;
28245;SDS011;15510;52.512;13.300;2023-07-13T11:13:35;6.88;;;1.77;;
28245;SDS011;15510;52.512;13.300;2023-07-13T11:16:21;1.67;;;1.10;;
28245;SDS011;15510;52.512;13.300;2023-07-13T11:21:31;3.08;;;1.00;;
28245;SDS011;15510;52.512;13.300;2023-07-13T11:31:43;2.58;;;1.05;;
28245;SDS011;15510;52.512;13.300;2023-07-13T11:34:30;4.47;;;2.15;;
28245;SDS011;15510;52.512;13.300;2023-07-13T11:37:00;4.22;;;1.10;;
28245;SDS011;15510;52.512;13.300;2023-07-13T11:39:39;2.58;;;1.02;;
28245;SDS011;15510;52.512;13.300;2023-07-13T11:42:17;7.78;;;1.52;;
28245;SDS011;15510;52.512;13.300;2023-07-13T11:44:50;1.65;;;0.70;;
28245;SDS011;15510;52.512;13.300;2023-07-13T11:47:21;3.40;;;1.17;;
28245;SDS011;15510;52.512;13.300;2023-07-13T11:49:53;3.15;;;1.10;;
28245;SDS011;15510;52.512;13.300;2023-07-13T11:52:31;2.40;;;1.10;;
28245;SDS011;15510;52.512;13.300;2023-07-13T11:55:01;3.42;;;1.02;;
28245;SDS011;15510;52.512;13.300;2023-07-13T11:57:42;4.53;;;1.42;;
28245;SDS011;15510;52.512;13.300;2023-07-13T12:00:22;1.88;;;1.05;;
28245;SDS011;15510;52.512;13.300;2023-07-13T12:02:52;2.72;;;0.93;;
28245;SDS011;15510;52.512;13.300;2023-07-13T12:05:25;3.50;;;1.45;;
28245;SDS011;15510;52.512;13.300;2023-07-13T12:07:51;3.05;;;1.20;;
28245;SDS011;15510;52.512;13.300;2023-07-13T12:12:50;4.65;;;1.02;;
28245;SDS011;15510;52.512;13.300;2023-07-13T12:15:21;5.03;;;1.05;;
28245;SDS011;15510;52.512;13.300;2023-07-13T12:17:48;6.05;;;1.30;;
28245;SDS011;15510;52.512;13.300;2023-07-13T12:22:51;1.70;;;1.05;;
28245;SDS011;15510;52.512;13.300;2023-07-13T12:25:26;5.97;;;1.15;;
28245;SDS011;15510;52.512;13.300;2023-07-13T12:27:56;4.85;;;1.30;;
28245;SDS011;15510;52.512;13.300;2023-07-13T12:30:30;3.25;;;0.93;;
28245;SDS011;15510;52.512;13.300;2023-07-13T12:33:27;2.10;;;0.90;;
28245;SDS011;15510;52.512;13.300;2023-07-13T12:35:52;3.60;;;1.10;;
28245;SDS011;15510;52.512;13.300;2023-07-13T12:38:18;4.75;;;1.05;;
28245;SDS011;15510;52.512;13.300;2023-07-13T12:40:50;7.07;;;0.70;;
28245;SDS011;15510;52.512;13.300;2023-07-13T12:43:19;3.83;;;0.90;;
28245;SDS011;15510;52.512;13.300;2023-07-13T12:48:54;5.00;;;0.80;;
28245;SDS011;15510;52.512;13.300;2023-07-13T12:51:24;3.70;;;1.10;;
28245;SDS011;15510;52.512;13.300;2023-07-13T12:53:55;2.67;;;0.63;;
28245;SDS011;15510;52.512;13.300;2023-07-13T12:59:32;1.55;;;0.75;;
28245;SDS011;15510;52.512;13.300;2023-07-13T13:02:02;3.25;;;1.00;;
28245;SDS011;15510;52.512;13.300;2023-07-13T13:04:42;1.83;;;0.95;;
28245;SDS011;15510;52.512;13.300;2023-07-13T13:07:14;3.85;;;1.08;;
28245;SDS011;15510;52.512;13.300;2023-07-13T13:09:47;4.75;;;0.85;;
28245;SDS011;15510;52.512;13.300;2023-07-13T13:12:17;1.52;;;0.77;;
28245;SDS011;15510;52.512;13.300;2023-07-13T13:14:49;1.25;;;0.63;;
28245;SDS011;15510;52.512;13.300;2023-07-13T13:17:38;3.53;;;0.73;;
28245;SDS011;15510;52.512;13.300;2023-07-13T13:20:28;1.85;;;0.80;;
28245;SDS011;15510;52.512;13.300;2023-07-13T13:22:54;4.55;;;1.00;;
28245;SDS011;15510;52.512;13.300;2023-07-13T13:25:20;3.55;;;0.57;;
28245;SDS011;15510;52.512;13.300;2023-07-13T13:27:47;2.05;;;0.80;;
28245;SDS011;15510;52.512;13.300;2023-07-13T13:30:16;2.60;;;0.60;;
28245;SDS011;15510;52.512;13.300;2023-07-13T13:32:47;1.85;;;0.60;;
28245;SDS011;15510;52.512;13.300;2023-07-13T13:35:18;5.07;;;0.75;;
28245;SDS011;15510;52.512;13.300;2023-07-13T13:37:47;2.88;;;0.70;;
28245;SDS011;15510;52.512;13.300;2023-07-13T13:40:19;4.53;;;0.90;;
28245;SDS011;15510;52.512;13.300;2023-07-13T13:42:50;1.73;;;0.65;;
28245;SDS011;15510;52.512;13.300;2023-07-13T13:45:20;3.95;;;0.77;;
28245;SDS011;15510;52.512;13.300;2023-07-13T13:47:52;2.35;;;0.90;;
28245;SDS011;15510;52.512;13.300;2023-07-13T13:50:20;2.17;;;0.90;;
28245;SDS011;15510;52.512;13.300;2023-07-13T13:52:49;2.08;;;0.85;;
28245;SDS011;15510;52.512;13.300;2023-07-13T13:55:16;8.00;;;1.20;;
28245;SDS011;15510;52.512;13.300;2023-07-13T13:57:55;2.33;;;0.70;;
28245;SDS011;15510;52.512;13.300;2023-07-13T14:00:21;2.83;;;0.70;;
28245;SDS011;15510;52.512;13.300;2023-07-13T14:02:50;2.45;;;1.13;;
28245;SDS011;15510;52.512;13.300;2023-07-13T14:05:22;2.78;;;0.85;;
28245;SDS011;15510;52.512;13.300;2023-07-13T14:07:54;3.67;;;1.00;;
28245;SDS011;15510;52.512;13.300;2023-07-13T14:10:21;3.50;;;0.60;;
28245;SDS011;15510;52.512;13.300;2023-07-13T14:13:18;2.72;;;0.80;;
28245;SDS011;15510;52.512;13.300;2023-07-13T14:15:57;5.63;;;0.88;;
28245;SDS011;15510;52.512;13.300;2023-07-13T14:18:26;1.58;;;0.73;;
28245;SDS011;15510;52.512;13.300;2023-07-13T14:20:53;4.07;;;0.70;;
28245;SDS011;15510;52.512;13.300;2023-07-13T14:23:19;1.75;;;0.77;;
28245;SDS011;15510;52.512;13.300;2023-07-13T14:25:46;2.33;;;1.00;;
28245;SDS011;15510;52.512;13.300;2023-07-13T14:28:20;6.57;;;1.23;;
28245;SDS011;15510;52.512;13.300;2023-07-13T14:30:49;1.23;;;0.80;;
28245;SDS011;15510;52.512;13.300;2023-07-13T14:33:16;2.03;;;0.70;;
28245;SDS011;15510;52.512;13.300;2023-07-13T14:35:42;4.88;;;0.80;;
28245;SDS011;15510;52.512;13.300;2023-07-13T14:38:18;2.00;;;0.60;;
28245;SDS011;15510;52.512;13.300;2023-07-13T14:40:47;4.53;;;0.75;;
28245;SDS011;15510;52.512;13.300;2023-07-13T14:43:14;1.23;;;0.70;;
28245;SDS011;15510;52.512;13.300;2023-07-13T14:45:44;2.10;;;0.70;;
28245;SDS011;15510;52.512;13.300;2023-07-13T14:48:15;2.55;;;0.70;;
28245;SDS011;15510;52.512;13.300;2023-07-13T14:50:53;1.40;;;0.60;;
28245;SDS011;15510;52.512;13.300;2023-07-13T14:53:24;3.92;;;0.50;;
28245;SDS011;15510;52.512;13.300;2023-07-13T14:55:52;4.60;;;0.65;;
28245;SDS011;15510;52.512;13.300;2023-07-13T14:58:19;2.65;;;0.65;;
28245;SDS011;15510;52.512;13.300;2023-07-13T15:00:48;2.25;;;0.40;;
28245;SDS011;15510;52.512;13.300;2023-07-13T15:03:20;3.05;;;0.40;;
28245;SDS011;15510;52.512;13.300;2023-07-13T15:05:51;1.45;;;0.50;;
28245;SDS011;15510;52.512;13.300;2023-07-13T15:08:27;3.45;;;0.63;;
28245;SDS011;15510;52.512;13.300;2023-07-13T15:10:53;1.48;;;0.60;;
28245;SDS011;15510;52.512;13.300;2023-07-13T15:13:27;2.67;;;0.75;;
28245;SDS011;15510;52.512;13.300;2023-07-13T15:15:54;5.63;;;2.20;;
28245;SDS011;15510;52.512;13.300;2023-07-13T15:18:22;2.35;;;0.73;;
28245;SDS011;15510;52.512;13.300;2023-07-13T15:20:52;5.57;;;0.95;;
28245;SDS011;15510;52.512;13.300;2023-07-13T15:23:23;1.13;;;0.50;;
28245;SDS011;15510;52.512;13.300;2023-07-13T15:25:51;3.10;;;0.70;;
28245;SDS011;15510;52.512;13.300;2023-07-13T15:28:19;4.35;;;0.68;;
28245;SDS011;15510;52.512;13.300;2023-07-13T15:30:49;2.58;;;0.60;;
28245;SDS011;15510;52.512;13.300;2023-07-13T15:35:57;1.20;;;0.68;;
28245;SDS011;15510;52.512;13.300;2023-07-13T15:38:25;6.05;;;2.33;;
28245;SDS011;15510;52.512;13.300;2023-07-13T15:40:57;5.15;;;1.55;;
28245;SDS011;15510;52.512;13.300;2023-07-13T15:43:23;1.85;;;0.63;;
28245;SDS011;15510;52.512;13.300;2023-07-13T15:46:05;2.10;;;1.00;;
28245;SDS011;15510;52.512;13.300;2023-07-13T15:48:33;2.00;;;1.40;;
28245;SDS011;15510;52.512;13.300;2023-07-13T15:51:03;2.08;;;1.00;;